sensor_id;sensor_type;location;lat;lon;timestamp;pressure;altitude;pressure_sealevel;temperature
66180;BMP280;52986;44.028;20.466;2023-11-18T00:00:31;97920.34;;;7.34
66180;BMP280;52986;44.028;20.466;2023-11-18T00:02:56;97928.81;;;7.28
66180;BMP280;52986;44.028;20.466;2023-11-18T00:05:22;97927.22;;;7.31
66180;BMP280;52986;44.028;20.466;2023-11-18T00:07:49;97928.38;;;7.30
66180;BMP280;52986;44.028;20.466;2023-11-18T00:10:15;97925.38;;;7.28
66180;BMP280;52986;44.028;20.466;2023-11-18T00:12:40;97931.69;;;7.18
66180;BMP280;52986;44.028;20.466;2023-11-18T00:15:07;97930.25;;;7.13
66180;BMP280;52986;44.028;20.466;2023-11-18T00:17:37;97928.28;;;7.17
66180;BMP280;52986;44.028;20.466;2023-11-18T00:20:02;97921.72;;;7.22
66180;BMP280;52986;44.028;20.466;2023-11-18T00:22:33;97925.66;;;7.14
66180;BMP280;52986;44.028;20.466;2023-11-18T00:24:59;97920.97;;;7.21
66180;BMP280;52986;44.028;20.466;2023-11-18T00:27:24;97915.28;;;7.19
66180;BMP280;52986;44.028;20.466;2023-11-18T00:29:50;97917.53;;;7.21
66180;BMP280;52986;44.028;20.466;2023-11-18T00:32:15;97910.63;;;7.23
66180;BMP280;52986;44.028;20.466;2023-11-18T00:34:41;97905.47;;;7.16
66180;BMP280;52986;44.028;20.466;2023-11-18T00:37:07;97915.72;;;7.18
66180;BMP280;52986;44.028;20.466;2023-11-18T00:39:32;97913.28;;;7.23
66180;BMP280;52986;44.028;20.466;2023-11-18T00:41:58;97926.69;;;7.20
66180;BMP280;52986;44.028;20.466;2023-11-18T00:44:23;97914.13;;;7.20
66180;BMP280;52986;44.028;20.466;2023-11-18T00:46:48;97929.19;;;7.27
66180;BMP280;52986;44.028;20.466;2023-11-18T00:49:14;97932.44;;;7.18
66180;BMP280;52986;44.028;20.466;2023-11-18T00:51:40;97927.06;;;7.22
66180;BMP280;52986;44.028;20.466;2023-11-18T00:54:06;97923.13;;;7.26
66180;BMP280;52986;44.028;20.466;2023-11-18T00:56:32;97930.63;;;7.31
66180;BMP280;52986;44.028;20.466;2023-11-18T00:58:58;97919.38;;;7.24
66180;BMP280;52986;44.028;20.466;2023-11-18T01:01:23;97935.69;;;7.26
66180;BMP280;52986;44.028;20.466;2023-11-18T01:03:49;97920.81;;;7.28
66180;BMP280;52986;44.028;20.466;2023-11-18T01:06:14;97923.88;;;7.27
66180;BMP280;52986;44.028;20.466;2023-11-18T01:08:46;97926.13;;;7.28
66180;BMP280;52986;44.028;20.466;2023-11-18T01:11:18;97936.72;;;7.32
66180;BMP280;52986;44.028;20.466;2023-11-18T01:13:51;97932.28;;;7.25
66180;BMP280;52986;44.028;20.466;2023-11-18T01:16:17;97947.44;;;7.28
66180;BMP280;52986;44.028;20.466;2023-11-18T01:18:44;97942.00;;;7.16
66180;BMP280;52986;44.028;20.466;2023-11-18T01:21:11;97933.25;;;7.15
66180;BMP280;52986;44.028;20.466;2023-11-18T01:23:37;97932.84;;;7.17
66180;BMP280;52986;44.028;20.466;2023-11-18T01:26:06;97937.56;;;7.09
66180;BMP280;52986;44.028;20.466;2023-11-18T01:28:36;97941.41;;;7.08
66180;BMP280;52986;44.028;20.466;2023-11-18T01:31:04;97942.50;;;7.11
66180;BMP280;52986;44.028;20.466;2023-11-18T01:33:30;97945.31;;;7.03
66180;BMP280;52986;44.028;20.466;2023-11-18T01:35:57;97954.44;;;7.02
66180;BMP280;52986;44.028;20.466;2023-11-18T01:38:23;97947.19;;;7.03
66180;BMP280;52986;44.028;20.466;2023-11-18T01:40:48;97952.94;;;7.01
66180;BMP280;52986;44.028;20.466;2023-11-18T01:43:14;97942.50;;;6.71
66180;BMP280;52986;44.028;20.466;2023-11-18T01:45:42;97945.28;;;6.64
66180;BMP280;52986;44.028;20.466;2023-11-18T01:48:08;97953.31;;;6.60
66180;BMP280;52986;44.028;20.466;2023-11-18T01:50:38;97950.47;;;6.51
66180;BMP280;52986;44.028;20.466;2023-11-18T01:53:05;97947.25;;;6.60
66180;BMP280;52986;44.028;20.466;2023-11-18T01:55:31;97946.38;;;6.66
66180;BMP280;52986;44.028;20.466;2023-11-18T01:58:00;97946.00;;;6.68
66180;BMP280;52986;44.028;20.466;2023-11-18T02:00:28;97943.94;;;6.76
66180;BMP280;52986;44.028;20.466;2023-11-18T02:02:55;97941.69;;;6.74
66180;BMP280;52986;44.028;20.466;2023-11-18T02:05:21;97935.38;;;6.64
66180;BMP280;52986;44.028;20.466;2023-11-18T02:07:47;97934.22;;;6.65
66180;BMP280;52986;44.028;20.466;2023-11-18T02:10:12;97942.31;;;6.82
66180;BMP280;52986;44.028;20.466;2023-11-18T02:12:54;97936.06;;;6.88
66180;BMP280;52986;44.028;20.466;2023-11-18T02:15:22;97936.66;;;6.80
66180;BMP280;52986;44.028;20.466;2023-11-18T02:17:50;97945.31;;;6.84
66180;BMP280;52986;44.028;20.466;2023-11-18T02:20:17;97935.13;;;6.79
66180;BMP280;52986;44.028;20.466;2023-11-18T02:22:46;97935.28;;;6.71
66180;BMP280;52986;44.028;20.466;2023-11-18T02:25:23;97934.31;;;6.82
66180;BMP280;52986;44.028;20.466;2023-11-18T02:27:49;97944.19;;;6.61
66180;BMP280;52986;44.028;20.466;2023-11-18T02:30:14;97950.19;;;6.65
66180;BMP280;52986;44.028;20.466;2023-11-18T02:35:41;97936.84;;;6.69
66180;BMP280;52986;44.028;20.466;2023-11-18T02:38:14;97949.75;;;6.70
66180;BMP280;52986;44.028;20.466;2023-11-18T02:40:42;97944.41;;;6.70
66180;BMP280;52986;44.028;20.466;2023-11-18T02:43:09;97948.66;;;6.68
66180;BMP280;52986;44.028;20.466;2023-11-18T02:45:36;97948.00;;;6.60
66180;BMP280;52986;44.028;20.466;2023-11-18T02:48:03;97946.88;;;6.61
66180;BMP280;52986;44.028;20.466;2023-11-18T02:50:29;97952.84;;;6.65
66180;BMP280;52986;44.028;20.466;2023-11-18T02:52:55;97962.00;;;6.64
66180;BMP280;52986;44.028;20.466;2023-11-18T02:55:21;97962.84;;;6.61
66180;BMP280;52986;44.028;20.466;2023-11-18T02:57:48;97972.53;;;6.48
66180;BMP280;52986;44.028;20.466;2023-11-18T03:00:15;97971.78;;;6.48
66180;BMP280;52986;44.028;20.466;2023-11-18T03:02:44;97974.00;;;6.53
66180;BMP280;52986;44.028;20.466;2023-11-18T03:05:12;97988.25;;;6.42
66180;BMP280;52986;44.028;20.466;2023-11-18T03:07:39;97977.31;;;6.37
66180;BMP280;52986;44.028;20.466;2023-11-18T03:10:06;97990.25;;;6.35
66180;BMP280;52986;44.028;20.466;2023-11-18T03:12:48;97984.31;;;6.51
66180;BMP280;52986;44.028;20.466;2023-11-18T03:15:15;97982.41;;;6.51
66180;BMP280;52986;44.028;20.466;2023-11-18T03:17:47;97990.34;;;6.55
66180;BMP280;52986;44.028;20.466;2023-11-18T03:20:14;97985.41;;;6.53
66180;BMP280;52986;44.028;20.466;2023-11-18T03:22:45;97990.78;;;6.50
66180;BMP280;52986;44.028;20.466;2023-11-18T03:25:14;98002.31;;;6.43
66180;BMP280;52986;44.028;20.466;2023-11-18T03:27:40;97986.69;;;6.45
66180;BMP280;52986;44.028;20.466;2023-11-18T03:30:06;98000.56;;;6.56
66180;BMP280;52986;44.028;20.466;2023-11-18T03:32:32;98004.44;;;6.52
66180;BMP280;52986;44.028;20.466;2023-11-18T03:34:58;98000.28;;;6.51
66180;BMP280;52986;44.028;20.466;2023-11-18T03:37:24;98006.09;;;6.42
66180;BMP280;52986;44.028;20.466;2023-11-18T03:39:51;98008.78;;;6.42
66180;BMP280;52986;44.028;20.466;2023-11-18T03:42:17;98015.47;;;6.50
66180;BMP280;52986;44.028;20.466;2023-11-18T03:44:42;98012.19;;;6.42
66180;BMP280;52986;44.028;20.466;2023-11-18T03:47:08;98000.78;;;6.42
66180;BMP280;52986;44.028;20.466;2023-11-18T03:49:33;98006.59;;;6.37
66180;BMP280;52986;44.028;20.466;2023-11-18T03:51:58;98003.66;;;6.31
66180;BMP280;52986;44.028;20.466;2023-11-18T03:54:24;98012.47;;;6.25
66180;BMP280;52986;44.028;20.466;2023-11-18T03:56:50;98019.69;;;6.24
66180;BMP280;52986;44.028;20.466;2023-11-18T03:59:15;98010.16;;;6.27
66180;BMP280;52986;44.028;20.466;2023-11-18T04:01:40;98032.94;;;6.28
66180;BMP280;52986;44.028;20.466;2023-11-18T04:04:06;98024.38;;;6.17
66180;BMP280;52986;44.028;20.466;2023-11-18T04:06:32;98029.22;;;6.22
66180;BMP280;52986;44.028;20.466;2023-11-18T04:08:57;98036.59;;;6.37
66180;BMP280;52986;44.028;20.466;2023-11-18T04:11:22;98030.81;;;6.42
66180;BMP280;52986;44.028;20.466;2023-11-18T04:13:49;98042.25;;;6.39
66180;BMP280;52986;44.028;20.466;2023-11-18T04:16:15;98040.44;;;6.33
66180;BMP280;52986;44.028;20.466;2023-11-18T04:18:41;98035.47;;;6.35
66180;BMP280;52986;44.028;20.466;2023-11-18T04:21:07;98043.44;;;6.35
66180;BMP280;52986;44.028;20.466;2023-11-18T04:23:37;98042.78;;;6.31
66180;BMP280;52986;44.028;20.466;2023-11-18T04:26:03;98037.91;;;6.26
66180;BMP280;52986;44.028;20.466;2023-11-18T04:28:29;98036.56;;;6.14
66180;BMP280;52986;44.028;20.466;2023-11-18T04:30:55;98048.69;;;6.19
66180;BMP280;52986;44.028;20.466;2023-11-18T04:33:20;98053.91;;;6.22
66180;BMP280;52986;44.028;20.466;2023-11-18T04:35:46;98062.75;;;6.15
66180;BMP280;52986;44.028;20.466;2023-11-18T04:38:12;98053.63;;;6.17
66180;BMP280;52986;44.028;20.466;2023-11-18T04:40:37;98049.88;;;6.14
66180;BMP280;52986;44.028;20.466;2023-11-18T04:43:04;98052.22;;;6.08
66180;BMP280;52986;44.028;20.466;2023-11-18T04:45:30;98053.00;;;6.05
66180;BMP280;52986;44.028;20.466;2023-11-18T04:47:56;98052.53;;;5.87
66180;BMP280;52986;44.028;20.466;2023-11-18T04:50:22;98052.16;;;5.89
66180;BMP280;52986;44.028;20.466;2023-11-18T04:52:47;98066.09;;;5.93
66180;BMP280;52986;44.028;20.466;2023-11-18T04:55:13;98047.81;;;5.98
66180;BMP280;52986;44.028;20.466;2023-11-18T04:57:39;98072.81;;;6.04
66180;BMP280;52986;44.028;20.466;2023-11-18T05:00:04;98066.63;;;6.11
66180;BMP280;52986;44.028;20.466;2023-11-18T05:02:39;98070.84;;;6.08
66180;BMP280;52986;44.028;20.466;2023-11-18T05:05:06;98074.91;;;6.17
66180;BMP280;52986;44.028;20.466;2023-11-18T05:07:32;98072.63;;;6.19
66180;BMP280;52986;44.028;20.466;2023-11-18T05:09:58;98082.56;;;6.11
66180;BMP280;52986;44.028;20.466;2023-11-18T05:12:23;98082.53;;;6.14
66180;BMP280;52986;44.028;20.466;2023-11-18T05:14:49;98074.84;;;6.20
66180;BMP280;52986;44.028;20.466;2023-11-18T05:17:15;98076.47;;;6.14
66180;BMP280;52986;44.028;20.466;2023-11-18T05:19:41;98078.56;;;6.26
66180;BMP280;52986;44.028;20.466;2023-11-18T05:22:08;98078.00;;;6.11
66180;BMP280;52986;44.028;20.466;2023-11-18T05:24:33;98089.44;;;6.08
66180;BMP280;52986;44.028;20.466;2023-11-18T05:26:58;98079.59;;;6.05
66180;BMP280;52986;44.028;20.466;2023-11-18T05:29:27;98092.09;;;6.08
66180;BMP280;52986;44.028;20.466;2023-11-18T05:31:53;98091.75;;;6.06
66180;BMP280;52986;44.028;20.466;2023-11-18T05:34:20;98092.56;;;6.03
66180;BMP280;52986;44.028;20.466;2023-11-18T05:36:46;98090.72;;;6.00
66180;BMP280;52986;44.028;20.466;2023-11-18T05:39:12;98088.56;;;6.19
66180;BMP280;52986;44.028;20.466;2023-11-18T05:41:40;98085.19;;;6.14
66180;BMP280;52986;44.028;20.466;2023-11-18T05:44:06;98086.78;;;6.08
66180;BMP280;52986;44.028;20.466;2023-11-18T05:46:35;98089.78;;;6.10
66180;BMP280;52986;44.028;20.466;2023-11-18T05:49:04;98093.06;;;6.22
66180;BMP280;52986;44.028;20.466;2023-11-18T05:51:33;98105.25;;;6.19
66180;BMP280;52986;44.028;20.466;2023-11-18T05:53:58;98096.94;;;6.17
66180;BMP280;52986;44.028;20.466;2023-11-18T05:56:24;98100.63;;;6.23
66180;BMP280;52986;44.028;20.466;2023-11-18T05:58:51;98101.94;;;6.11
66180;BMP280;52986;44.028;20.466;2023-11-18T06:01:18;98100.44;;;6.10
66180;BMP280;52986;44.028;20.466;2023-11-18T06:03:45;98097.78;;;6.10
66180;BMP280;52986;44.028;20.466;2023-11-18T06:06:12;98108.84;;;6.05
66180;BMP280;52986;44.028;20.466;2023-11-18T06:08:39;98115.34;;;6.04
66180;BMP280;52986;44.028;20.466;2023-11-18T06:11:12;98126.72;;;6.05
66180;BMP280;52986;44.028;20.466;2023-11-18T06:13:51;98122.06;;;6.12
66180;BMP280;52986;44.028;20.466;2023-11-18T06:16:24;98130.06;;;6.12
66180;BMP280;52986;44.028;20.466;2023-11-18T06:18:54;98141.13;;;6.07
66180;BMP280;52986;44.028;20.466;2023-11-18T06:21:22;98137.16;;;6.19
66180;BMP280;52986;44.028;20.466;2023-11-18T06:23:50;98148.47;;;6.27
66180;BMP280;52986;44.028;20.466;2023-11-18T06:26:16;98160.16;;;6.33
66180;BMP280;52986;44.028;20.466;2023-11-18T06:28:45;98152.94;;;6.33
66180;BMP280;52986;44.028;20.466;2023-11-18T06:31:11;98159.88;;;6.27
66180;BMP280;52986;44.028;20.466;2023-11-18T06:33:44;98162.25;;;6.18
66180;BMP280;52986;44.028;20.466;2023-11-18T06:38:37;98181.22;;;6.20
66180;BMP280;52986;44.028;20.466;2023-11-18T06:41:03;98179.00;;;6.19
66180;BMP280;52986;44.028;20.466;2023-11-18T06:43:30;98187.28;;;6.21
66180;BMP280;52986;44.028;20.466;2023-11-18T06:46:07;98184.22;;;6.22
66180;BMP280;52986;44.028;20.466;2023-11-18T06:48:37;98185.78;;;6.20
66180;BMP280;52986;44.028;20.466;2023-11-18T06:51:02;98186.06;;;6.29
66180;BMP280;52986;44.028;20.466;2023-11-18T06:53:30;98194.16;;;6.18
66180;BMP280;52986;44.028;20.466;2023-11-18T06:55:55;98200.78;;;6.37
66180;BMP280;52986;44.028;20.466;2023-11-18T06:58:20;98191.78;;;6.27
66180;BMP280;52986;44.028;20.466;2023-11-18T07:00:46;98204.75;;;6.22
66180;BMP280;52986;44.028;20.466;2023-11-18T07:03:13;98194.53;;;6.20
66180;BMP280;52986;44.028;20.466;2023-11-18T07:05:39;98200.69;;;6.44
66180;BMP280;52986;44.028;20.466;2023-11-18T07:08:05;98187.41;;;6.40
66180;BMP280;52986;44.028;20.466;2023-11-18T07:10:30;98196.69;;;6.29
66180;BMP280;52986;44.028;20.466;2023-11-18T07:12:56;98206.66;;;6.25
66180;BMP280;52986;44.028;20.466;2023-11-18T07:15:21;98208.84;;;6.30
66180;BMP280;52986;44.028;20.466;2023-11-18T07:17:47;98208.31;;;6.42
66180;BMP280;52986;44.028;20.466;2023-11-18T07:20:12;98222.09;;;6.33
66180;BMP280;52986;44.028;20.466;2023-11-18T07:22:39;98208.28;;;6.46
66180;BMP280;52986;44.028;20.466;2023-11-18T07:25:05;98217.28;;;6.55
66180;BMP280;52986;44.028;20.466;2023-11-18T07:27:34;98223.56;;;6.38
66180;BMP280;52986;44.028;20.466;2023-11-18T07:30:00;98219.03;;;6.35
66180;BMP280;52986;44.028;20.466;2023-11-18T07:32:25;98215.28;;;6.32
66180;BMP280;52986;44.028;20.466;2023-11-18T07:34:51;98217.53;;;6.34
66180;BMP280;52986;44.028;20.466;2023-11-18T07:37:16;98223.81;;;6.47
66180;BMP280;52986;44.028;20.466;2023-11-18T07:39:42;98219.88;;;6.32
66180;BMP280;52986;44.028;20.466;2023-11-18T07:42:13;98208.47;;;6.31
66180;BMP280;52986;44.028;20.466;2023-11-18T07:44:40;98215.19;;;6.39
66180;BMP280;52986;44.028;20.466;2023-11-18T07:47:05;98219.47;;;6.30
66180;BMP280;52986;44.028;20.466;2023-11-18T07:49:34;98214.88;;;6.34
66180;BMP280;52986;44.028;20.466;2023-11-18T07:52:02;98222.41;;;6.39
66180;BMP280;52986;44.028;20.466;2023-11-18T07:54:27;98230.63;;;6.48
66180;BMP280;52986;44.028;20.466;2023-11-18T07:56:53;98233.28;;;6.48
66180;BMP280;52986;44.028;20.466;2023-11-18T07:59:19;98227.19;;;6.51
66180;BMP280;52986;44.028;20.466;2023-11-18T08:01:45;98230.25;;;6.50
66180;BMP280;52986;44.028;20.466;2023-11-18T08:04:12;98230.94;;;6.54
66180;BMP280;52986;44.028;20.466;2023-11-18T08:06:39;98236.84;;;6.68
66180;BMP280;52986;44.028;20.466;2023-11-18T08:09:05;98237.91;;;6.74
66180;BMP280;52986;44.028;20.466;2023-11-18T08:11:38;98238.75;;;6.68
66180;BMP280;52986;44.028;20.466;2023-11-18T08:14:09;98242.81;;;6.76
66180;BMP280;52986;44.028;20.466;2023-11-18T08:16:34;98244.50;;;6.90
66180;BMP280;52986;44.028;20.466;2023-11-18T08:19:01;98244.78;;;6.99
66180;BMP280;52986;44.028;20.466;2023-11-18T08:21:33;98242.72;;;6.83
66180;BMP280;52986;44.028;20.466;2023-11-18T08:23:59;98244.91;;;6.88
66180;BMP280;52986;44.028;20.466;2023-11-18T08:26:25;98240.25;;;6.96
66180;BMP280;52986;44.028;20.466;2023-11-18T08:28:51;98250.53;;;7.21
66180;BMP280;52986;44.028;20.466;2023-11-18T08:31:17;98239.88;;;7.21
66180;BMP280;52986;44.028;20.466;2023-11-18T08:33:42;98248.19;;;7.23
66180;BMP280;52986;44.028;20.466;2023-11-18T08:36:08;98246.75;;;7.18
66180;BMP280;52986;44.028;20.466;2023-11-18T08:38:34;98249.00;;;7.20
66180;BMP280;52986;44.028;20.466;2023-11-18T08:41:00;98252.84;;;7.19
66180;BMP280;52986;44.028;20.466;2023-11-18T08:43:25;98268.81;;;7.19
66180;BMP280;52986;44.028;20.466;2023-11-18T08:45:54;98264.53;;;7.25
66180;BMP280;52986;44.028;20.466;2023-11-18T08:48:19;98269.69;;;7.36
66180;BMP280;52986;44.028;20.466;2023-11-18T08:50:45;98255.78;;;7.48
66180;BMP280;52986;44.028;20.466;2023-11-18T08:53:11;98266.13;;;7.46
66180;BMP280;52986;44.028;20.466;2023-11-18T08:55:37;98273.34;;;7.45
66180;BMP280;52986;44.028;20.466;2023-11-18T08:58:12;98275.94;;;7.49
66180;BMP280;52986;44.028;20.466;2023-11-18T09:00:48;98285.34;;;7.57
66180;BMP280;52986;44.028;20.466;2023-11-18T09:03:18;98266.00;;;7.53
66180;BMP280;52986;44.028;20.466;2023-11-18T09:05:57;98247.94;;;7.41
66180;BMP280;52986;44.028;20.466;2023-11-18T09:08:33;98278.44;;;7.36
66180;BMP280;52986;44.028;20.466;2023-11-18T09:11:07;98267.69;;;7.43
66180;BMP280;52986;44.028;20.466;2023-11-18T09:13:34;98260.03;;;7.45
66180;BMP280;52986;44.028;20.466;2023-11-18T09:16:05;98271.84;;;7.44
66180;BMP280;52986;44.028;20.466;2023-11-18T09:18:34;98269.94;;;7.45
66180;BMP280;52986;44.028;20.466;2023-11-18T09:21:00;98274.91;;;7.43
66180;BMP280;52986;44.028;20.466;2023-11-18T09:23:27;98276.66;;;7.53
66180;BMP280;52986;44.028;20.466;2023-11-18T09:25:53;98289.78;;;7.63
66180;BMP280;52986;44.028;20.466;2023-11-18T09:28:20;98276.41;;;7.67
66180;BMP280;52986;44.028;20.466;2023-11-18T09:30:46;98272.25;;;7.86
66180;BMP280;52986;44.028;20.466;2023-11-18T09:33:25;98276.78;;;7.89
66180;BMP280;52986;44.028;20.466;2023-11-18T09:36:00;98273.78;;;8.07
66180;BMP280;52986;44.028;20.466;2023-11-18T09:38:29;98284.09;;;8.05
66180;BMP280;52986;44.028;20.466;2023-11-18T09:40:59;98264.78;;;8.17
66180;BMP280;52986;44.028;20.466;2023-11-18T09:43:37;98265.06;;;8.03
66180;BMP280;52986;44.028;20.466;2023-11-18T09:46:14;98275.25;;;8.28
66180;BMP280;52986;44.028;20.466;2023-11-18T09:51:53;98270.63;;;8.12
66180;BMP280;52986;44.028;20.466;2023-11-18T10:00:00;98248.94;;;8.10
66180;BMP280;52986;44.028;20.466;2023-11-18T10:02:39;98247.16;;;8.23
66180;BMP280;52986;44.028;20.466;2023-11-18T10:05:06;98252.00;;;8.28
66180;BMP280;52986;44.028;20.466;2023-11-18T10:07:39;98250.03;;;8.32
66180;BMP280;52986;44.028;20.466;2023-11-18T10:10:05;98260.16;;;8.21
66180;BMP280;52986;44.028;20.466;2023-11-18T10:12:41;98263.00;;;8.30
66180;BMP280;52986;44.028;20.466;2023-11-18T10:15:08;98247.78;;;8.31
66180;BMP280;52986;44.028;20.466;2023-11-18T10:17:42;98250.03;;;8.32
66180;BMP280;52986;44.028;20.466;2023-11-18T10:20:21;98235.44;;;8.17
66180;BMP280;52986;44.028;20.466;2023-11-18T10:23:05;98244.28;;;8.14
66180;BMP280;52986;44.028;20.466;2023-11-18T10:25:31;98232.63;;;8.24
66180;BMP280;52986;44.028;20.466;2023-11-18T10:27:56;98244.06;;;8.25
66180;BMP280;52986;44.028;20.466;2023-11-18T10:30:22;98242.03;;;8.32
66180;BMP280;52986;44.028;20.466;2023-11-18T10:32:58;98232.19;;;8.45
66180;BMP280;52986;44.028;20.466;2023-11-18T10:35:36;98231.88;;;8.43
66180;BMP280;52986;44.028;20.466;2023-11-18T10:38:02;98226.09;;;8.45
66180;BMP280;52986;44.028;20.466;2023-11-18T10:40:32;98216.13;;;8.49
66180;BMP280;52986;44.028;20.466;2023-11-18T10:43:03;98220.22;;;8.70
66180;BMP280;52986;44.028;20.466;2023-11-18T10:45:34;98205.03;;;8.67
66180;BMP280;52986;44.028;20.466;2023-11-18T10:48:05;98219.22;;;8.80
66180;BMP280;52986;44.028;20.466;2023-11-18T10:50:31;98216.59;;;8.60
66180;BMP280;52986;44.028;20.466;2023-11-18T10:53:00;98212.03;;;8.77
66180;BMP280;52986;44.028;20.466;2023-11-18T10:55:39;98218.88;;;8.62
66180;BMP280;52986;44.028;20.466;2023-11-18T10:58:09;98218.22;;;8.74
66180;BMP280;52986;44.028;20.466;2023-11-18T11:00:50;98217.63;;;8.82
66180;BMP280;52986;44.028;20.466;2023-11-18T11:03:25;98205.03;;;8.99
66180;BMP280;52986;44.028;20.466;2023-11-18T11:05:51;98211.50;;;9.15
66180;BMP280;52986;44.028;20.466;2023-11-18T11:08:19;98206.38;;;9.36
66180;BMP280;52986;44.028;20.466;2023-11-18T11:10:46;98211.00;;;9.20
66180;BMP280;52986;44.028;20.466;2023-11-18T11:13:14;98231.22;;;9.79
66180;BMP280;52986;44.028;20.466;2023-11-18T11:15:43;98212.03;;;10.09
66180;BMP280;52986;44.028;20.466;2023-11-18T11:18:20;98215.13;;;9.95
66180;BMP280;52986;44.028;20.466;2023-11-18T11:20:59;98218.84;;;9.97
66180;BMP280;52986;44.028;20.466;2023-11-18T11:23:42;98217.84;;;9.79
66180;BMP280;52986;44.028;20.466;2023-11-18T11:29:02;98218.63;;;9.50
66180;BMP280;52986;44.028;20.466;2023-11-18T11:31:38;98217.13;;;9.49
66180;BMP280;52986;44.028;20.466;2023-11-18T11:36:42;98209.09;;;9.49
66180;BMP280;52986;44.028;20.466;2023-11-18T11:39:08;98218.91;;;9.68
66180;BMP280;52986;44.028;20.466;2023-11-18T11:41:41;98216.19;;;10.10
66180;BMP280;52986;44.028;20.466;2023-11-18T11:44:09;98200.53;;;9.96
66180;BMP280;52986;44.028;20.466;2023-11-18T11:46:35;98209.53;;;9.89
66180;BMP280;52986;44.028;20.466;2023-11-18T11:49:02;98215.00;;;9.86
66180;BMP280;52986;44.028;20.466;2023-11-18T11:52:29;98204.72;;;9.84
66180;BMP280;52986;44.028;20.466;2023-11-18T11:54:35;98217.13;;;9.49
66180;BMP280;52986;44.028;20.466;2023-11-18T11:57:03;98211.97;;;9.26
66180;BMP280;52986;44.028;20.466;2023-11-18T12:02:27;98219.66;;;9.24
66180;BMP280;52986;44.028;20.466;2023-11-18T12:04:58;98219.78;;;9.20
66180;BMP280;52986;44.028;20.466;2023-11-18T12:07:27;98218.63;;;9.92
66180;BMP280;52986;44.028;20.466;2023-11-18T12:09:57;98218.47;;;10.24
66180;BMP280;52986;44.028;20.466;2023-11-18T12:12:25;98223.78;;;9.86
66180;BMP280;52986;44.028;20.466;2023-11-18T12:14:57;98230.59;;;9.46
66180;BMP280;52986;44.028;20.466;2023-11-18T12:17:26;98233.38;;;9.26
66180;BMP280;52986;44.028;20.466;2023-11-18T12:19:57;98242.56;;;9.25
66180;BMP280;52986;44.028;20.466;2023-11-18T12:23:03;98222.69;;;9.26
66180;BMP280;52986;44.028;20.466;2023-11-18T12:25:30;98230.63;;;8.97
66180;BMP280;52986;44.028;20.466;2023-11-18T12:27:57;98230.56;;;8.84
66180;BMP280;52986;44.028;20.466;2023-11-18T12:33:00;98252.78;;;8.45
66180;BMP280;52986;44.028;20.466;2023-11-18T12:36:02;98241.03;;;8.42
66180;BMP280;52986;44.028;20.466;2023-11-18T12:38:59;98262.41;;;8.59
66180;BMP280;52986;44.028;20.466;2023-11-18T12:47:02;98270.00;;;8.60
66180;BMP280;52986;44.028;20.466;2023-11-18T12:49:46;98269.34;;;8.56
66180;BMP280;52986;44.028;20.466;2023-11-18T12:52:20;98273.31;;;8.48
66180;BMP280;52986;44.028;20.466;2023-11-18T12:54:47;98265.88;;;8.39
66180;BMP280;52986;44.028;20.466;2023-11-18T12:57:16;98273.19;;;8.35
66180;BMP280;52986;44.028;20.466;2023-11-18T12:59:43;98272.38;;;8.38
66180;BMP280;52986;44.028;20.466;2023-11-18T13:02:11;98279.03;;;8.30
66180;BMP280;52986;44.028;20.466;2023-11-18T13:04:45;98264.63;;;8.24
66180;BMP280;52986;44.028;20.466;2023-11-18T13:07:16;98273.84;;;8.23
66180;BMP280;52986;44.028;20.466;2023-11-18T13:09:46;98285.34;;;8.20
66180;BMP280;52986;44.028;20.466;2023-11-18T13:12:13;98282.81;;;8.33
66180;BMP280;52986;44.028;20.466;2023-11-18T13:14:44;98287.38;;;8.32
66180;BMP280;52986;44.028;20.466;2023-11-18T13:17:17;98281.19;;;8.35
66180;BMP280;52986;44.028;20.466;2023-11-18T13:19:43;98287.22;;;8.39
66180;BMP280;52986;44.028;20.466;2023-11-18T13:22:13;98300.38;;;8.30
66180;BMP280;52986;44.028;20.466;2023-11-18T13:24:40;98287.53;;;8.25
66180;BMP280;52986;44.028;20.466;2023-11-18T13:27:07;98288.44;;;8.18
66180;BMP280;52986;44.028;20.466;2023-11-18T13:29:35;98287.66;;;8.18
66180;BMP280;52986;44.028;20.466;2023-11-18T13:32:01;98291.22;;;8.11
66180;BMP280;52986;44.028;20.466;2023-11-18T13:34:30;98298.53;;;8.07
66180;BMP280;52986;44.028;20.466;2023-11-18T13:36:58;98301.13;;;8.11
66180;BMP280;52986;44.028;20.466;2023-11-18T13:39:25;98300.19;;;8.21
66180;BMP280;52986;44.028;20.466;2023-11-18T13:41:53;98305.72;;;8.30
66180;BMP280;52986;44.028;20.466;2023-11-18T13:44:37;98303.59;;;8.21
66180;BMP280;52986;44.028;20.466;2023-11-18T13:47:06;98311.31;;;8.16
66180;BMP280;52986;44.028;20.466;2023-11-18T13:49:32;98314.28;;;8.02
66180;BMP280;52986;44.028;20.466;2023-11-18T13:52:00;98326.13;;;8.01
66180;BMP280;52986;44.028;20.466;2023-11-18T13:54:29;98304.69;;;8.04
66180;BMP280;52986;44.028;20.466;2023-11-18T13:57:00;98320.69;;;8.24
66180;BMP280;52986;44.028;20.466;2023-11-18T13:59:26;98323.03;;;8.22
66180;BMP280;52986;44.028;20.466;2023-11-18T14:01:53;98317.69;;;8.22
66180;BMP280;52986;44.028;20.466;2023-11-18T14:04:22;98323.91;;;8.35
66180;BMP280;52986;44.028;20.466;2023-11-18T14:06:51;98325.56;;;8.29
66180;BMP280;52986;44.028;20.466;2023-11-18T14:09:17;98332.53;;;8.23
66180;BMP280;52986;44.028;20.466;2023-11-18T14:11:46;98341.28;;;8.23
66180;BMP280;52986;44.028;20.466;2023-11-18T14:14:12;98338.34;;;8.18
66180;BMP280;52986;44.028;20.466;2023-11-18T14:16:37;98344.66;;;8.28
66180;BMP280;52986;44.028;20.466;2023-11-18T14:19:04;98356.97;;;8.21
66180;BMP280;52986;44.028;20.466;2023-11-18T14:21:31;98355.94;;;8.15
66180;BMP280;52986;44.028;20.466;2023-11-18T14:23:57;98356.00;;;8.12
66180;BMP280;52986;44.028;20.466;2023-11-18T14:26:25;98356.06;;;8.08
66180;BMP280;52986;44.028;20.466;2023-11-18T14:28:52;98356.22;;;8.21
66180;BMP280;52986;44.028;20.466;2023-11-18T14:31:17;98361.59;;;8.17
66180;BMP280;52986;44.028;20.466;2023-11-18T14:33:43;98358.75;;;8.08
66180;BMP280;52986;44.028;20.466;2023-11-18T14:36:09;98363.38;;;8.04
66180;BMP280;52986;44.028;20.466;2023-11-18T14:38:35;98355.16;;;7.95
66180;BMP280;52986;44.028;20.466;2023-11-18T14:41:02;98364.72;;;7.92
66180;BMP280;52986;44.028;20.466;2023-11-18T14:43:28;98370.91;;;8.09
66180;BMP280;52986;44.028;20.466;2023-11-18T14:45:54;98364.81;;;7.89